Inglenook, California
Current Conditions -  °F | °C
As of 3:56 PM on Monday 22 Dec 2014 (Local Time) from KUKI Reporting Station
Few Clouds Few Clouds  
Wind Chill: 64°   Ceiling: Unl
Heat Index: 64°   Visibility: 10mi
Dew Point: 53°   Wind: 3mph
Humidity: 67%   Direction: 290°WNW
Pressure: 30.23"   Gusts: NA
Location:  39.4588°N, 123.715°W
Report Text: KUKI 222356Z AUTO 29003KT 10SM FEW034 18/12 A3023 RMK AO2 SLP232 T01780117 10194 20139 55007
Loading
Personal Weather Stations






























Interactive Weather Map New forecast layout! Learn more

10-Day Weather Forecast

Advertisements
Track Severe Weather on mobile